Time;durP1;ratioP1;P1;durP2;ratioP2;P2;SDS_P1;SDS_P2;PMS_P1;PMS_P2;Temp;Humidity;BMP_temperature;BMP_pressure;BME280_temperature;BME280_humidity;BME280_pressure;Samples;Min_cycle;Max_cycle;Signal;HPM_P1;HPM_P2
2022/12/18 00:01:34;;;;;;;50.48;21.35;;;;;;;0.78;72.05;102113.05;1693185;84;25922;-62
2022/12/18 00:04:07;;;;;;;44.08;22.07;;;;;;;0.78;72.40;102112.61;1702443;83;26382;-62
2022/12/18 00:06:36;;;;;;;45.28;22.37;;;;;;;0.84;71.92;102114.23;1648401;84;27487;-62
2022/12/18 00:09:04;;;;;;;47.08;23.40;;;;;;;0.82;71.59;102123.10;1700276;83;25441;-62
2022/12/18 00:11:32;;;;;;;42.48;21.57;;;;;;;0.77;71.60;102129.41;1703686;84;25886;-61
2022/12/18 00:14:00;;;;;;;39.95;21.23;;;;;;;0.74;71.61;102132.59;1703046;84;25828;-61
2022/12/18 00:16:32;;;;;;;42.53;20.85;;;;;;;0.75;71.65;102137.84;1702787;84;25789;-61
2022/12/18 00:19:00;;;;;;;47.88;20.82;;;;;;;0.77;71.04;102137.36;1692328;84;27497;-61
2022/12/18 00:21:29;;;;;;;47.20;21.95;;;;;;;0.77;71.27;102146.62;1672130;85;25865;-62
2022/12/18 00:23:56;;;;;;;43.02;21.82;;;;;;;0.71;70.91;102149.44;1642668;87;25747;-62
2022/12/18 00:26:29;;;;;;;43.30;21.12;;;;;;;0.66;70.93;102167.67;1671443;85;25775;-62
2022/12/18 00:29:08;;;;;;;44.67;21.45;;;;;;;0.63;70.97;102171.25;1671432;85;25765;-62
2022/12/18 00:31:36;;;;;;;42.40;20.72;;;;;;;0.57;70.96;102169.64;1671610;84;27608;-62
2022/12/18 00:34:03;;;;;;;46.45;22.35;;;;;;;0.54;71.02;102175.00;1663820;84;25769;-62
2022/12/18 00:36:33;;;;;;;40.00;21.10;;;;;;;0.52;71.28;102178.60;1702878;84;25838;-62
2022/12/18 00:39:04;;;;;;;38.98;19.87;;;;;;;0.49;71.12;102183.52;1692134;84;25799;-62
2022/12/18 00:44:18;;;;;;;32.63;17.90;;;;;;;0.46;71.18;102176.97;1673602;84;27468;-62
2022/12/18 00:46:47;;;;;;;37.75;19.30;;;;;;;0.41;70.67;102178.83;1702416;84;25812;-62
2022/12/18 00:49:15;;;;;;;37.23;19.65;;;;;;;0.43;71.15;102192.91;1702030;84;25771;-62
2022/12/18 00:51:42;;;;;;;37.50;19.65;;;;;;;0.45;71.12;102188.46;1702851;84;25793;-62
2022/12/18 00:54:10;;;;;;;41.23;19.12;;;;;;;0.44;70.86;102194.66;1678631;84;25798;-62
2022/12/18 00:56:39;;;;;;;30.45;17.12;;;;;;;0.44;70.86;102198.19;1707534;82;27568;-62
2022/12/18 00:59:06;;;;;;;34.83;18.30;;;;;;;0.42;70.66;102180.58;1718202;83;25822;-62
2022/12/18 01:01:33;;;;;;;33.28;17.77;;;;;;;0.40;70.73;102186.38;1718559;83;25655;-62
2022/12/18 01:04:03;;;;;;;33.38;16.20;;;;;;;0.42;70.81;102193.38;1718152;83;25732;-62
2022/12/18 01:06:30;;;;;;;45.58;18.25;;;;;;;0.38;70.40;102187.72;1717132;83;25785;-62
2022/12/18 01:08:57;;;;;;;35.38;17.75;;;;;;;0.36;70.52;102187.34;1708431;83;27410;-62
2022/12/18 01:11:24;;;;;;;33.28;17.05;;;;;;;0.33;70.54;102188.30;1718548;83;25719;-62
2022/12/18 01:13:53;;;;;;;33.50;17.80;;;;;;;0.33;70.70;102199.31;1703986;82;25825;-62
2022/12/18 01:16:23;;;;;;;34.55;16.35;;;;;;;0.34;70.63;102197.98;1714984;83;25821;-62
2022/12/18 01:18:53;;;;;;;33.55;15.30;;;;;;;0.30;69.99;102210.86;1709793;83;25961;-62
2022/12/18 01:21:22;;;;;;;32.35;16.32;;;;;;;0.22;69.96;102203.54;1685440;83;27460;-62
2022/12/18 01:23:54;;;;;;;31.00;17.23;;;;;;;0.15;69.88;102206.33;1689346;84;25789;-62
2022/12/18 01:26:25;;;;;;;37.40;17.65;;;;;;;0.10;70.21;102207.33;1717789;83;25714;-61
2022/12/18 01:28:56;;;;;;;35.90;16.37;;;;;;;0.09;70.13;102214.38;1698807;83;25745;-62
2022/12/18 01:31:30;;;;;;;28.85;15.50;;;;;;;0.03;70.16;102217.17;1670940;85;26456;-62
2022/12/18 01:34:01;;;;;;;28.00;15.93;;;;;;;-0.02;69.97;102219.91;1688862;83;27493;-62
2022/12/18 01:36:32;;;;;;;33.42;16.40;;;;;;;-0.03;70.33;102228.75;1714801;83;25978;-62
2022/12/18 01:39:07;;;;;;;35.85;18.42;;;;;;;-0.09;70.08;102219.63;1675856;84;26167;-62
2022/12/18 01:44:53;;;;;;;34.43;16.50;;;;;;;-0.15;70.48;102226.37;1660034;85;25703;-62
2022/12/18 01:47:50;;;;;;;34.98;17.25;;;;;;;-0.14;70.72;102225.47;1699943;84;28525;-62
2022/12/18 01:50:27;;;;;;;33.15;16.48;;;;;;;-0.15;70.51;102227.70;1699576;84;25862;-62
2022/12/18 01:53:05;;;;;;;33.48;16.62;;;;;;;-0.23;70.59;102227.84;1704375;83;25905;-62
2022/12/18 01:55:40;;;;;;;32.17;15.70;;;;;;;-0.27;70.66;102235.86;1673007;83;26532;-62
2022/12/18 01:58:07;;;;;;;38.88;16.07;;;;;;;-0.35;70.75;102236.89;1704363;83;25730;-62
2022/12/18 02:00:35;;;;;;;31.65;16.48;;;;;;;-0.38;70.88;102240.91;1701783;84;27451;-62
2022/12/18 02:03:02;;;;;;;28.00;16.05;;;;;;;-0.45;70.86;102231.81;1707510;84;25739;-62
2022/12/18 02:05:41;;;;;;;26.57;14.98;;;;;;;-0.52;71.01;102241.16;1694742;84;25840;-62
2022/12/18 02:08:22;;;;;;;29.48;15.80;;;;;;;-0.55;71.22;102239.92;1695059;83;25860;-62
2022/12/18 02:11:01;;;;;;;35.35;16.73;;;;;;;-0.60;71.17;102239.11;1670459;85;25795;-62
2022/12/18 02:13:48;;;;;;;31.80;16.45;;;;;;;-0.64;71.35;102241.41;1675978;84;28404;-62
2022/12/18 02:16:24;;;;;;;36.33;16.93;;;;;;;-0.65;71.36;102243.63;1660156;84;26058;-62
2022/12/18 02:18:56;;;;;;;31.00;16.75;;;;;;;-0.70;71.21;102247.67;1670688;85;25773;-62
2022/12/18 02:22:08;;;;;;;36.28;16.80;;;;;;;-0.71;71.28;102247.67;1678463;84;25790;-62
2022/12/18 02:24:58;;;;;;;28.98;15.88;;;;;;;-0.67;71.44;102254.66;1644628;87;26315;-62
2022/12/18 02:27:28;;;;;;;35.13;16.73;;;;;;;-0.69;71.05;102261.31;1673067;85;29633;-61
2022/12/18 02:29:57;;;;;;;31.48;16.73;;;;;;;-0.71;71.04;102264.42;1644594;87;25780;-62
2022/12/18 02:32:32;;;;;;;30.75;15.38;;;;;;;-0.71;70.89;102265.74;1672735;84;26514;-62
2022/12/18 02:35:02;;;;;;;37.42;18.23;;;;;;;-0.73;70.90;102266.21;1706765;82;25804;-62
2022/12/18 02:37:31;;;;;;;34.30;15.63;;;;;;;-0.75;70.92;102281.21;1700626;84;25859;-62
2022/12/18 02:40:00;;;;;;;32.95;15.83;;;;;;;-0.75;71.02;102280.36;1704676;84;28409;-62
2022/12/18 02:42:29;;;;;;;32.55;16.97;;;;;;;-0.76;70.99;102282.57;1702480;84;25925;-62
2022/12/18 02:44:56;;;;;;;31.42;16.87;;;;;;;-0.79;71.06;102283.50;1705363;84;25722;-61
2022/12/18 02:47:31;;;;;;;39.83;17.48;;;;;;;-0.82;71.28;102288.83;1707316;84;25722;-61
2022/12/18 02:50:22;;;;;;;30.70;15.88;;;;;;;-0.85;71.39;102287.58;1707197;82;25850;-61
2022/12/18 02:53:07;;;;;;;33.18;17.62;;;;;;;-0.88;71.53;102303.47;1707671;83;27514;-61
2022/12/18 02:55:57;;;;;;;35.13;16.65;;;;;;;-0.95;71.78;102308.86;1706177;84;25877;-62
2022/12/18 02:58:38;;;;;;;29.92;16.07;;;;;;;-1.00;71.79;102306.72;1706662;82;25783;-62
2022/12/18 03:01:18;;;;;;;35.10;16.27;;;;;;;-1.00;71.96;102308.50;1685502;84;25899;-62
2022/12/18 03:03:55;;;;;;;33.25;17.12;;;;;;;-1.02;71.97;102314.25;1706077;82;25778;-62
2022/12/18 03:06:39;;;;;;;37.53;17.32;;;;;;;-1.03;72.06;102313.83;1707755;82;27472;-62
2022/12/18 03:09:14;;;;;;;32.35;16.55;;;;;;;-1.03;72.18;102322.61;1700964;84;25796;-62
2022/12/18 03:14:38;;;;;;;35.85;18.55;;;;;;;-1.03;72.31;102334.49;1692058;84;25714;-62
2022/12/18 03:17:13;;;;;;;38.90;17.95;;;;;;;-1.01;72.32;102337.99;1701388;84;25761;-62
2022/12/18 03:19:43;;;;;;;40.08;19.73;;;;;;;-0.97;72.36;102341.45;1700319;84;28279;-62
2022/12/18 03:22:11;;;;;;;39.13;19.82;;;;;;;-0.94;72.35;102337.46;1701273;83;25745;-62
2022/12/18 03:24:41;;;;;;;38.70;19.50;;;;;;;-0.93;72.26;102342.28;1704105;83;26405;-62
2022/12/18 03:27:11;;;;;;;40.65;20.57;;;;;;;-0.98;72.00;102348.52;1707361;84;25684;-62
2022/12/18 03:29:49;;;;;;;41.73;20.68;;;;;;;-0.97;71.99;102350.27;1706257;83;25783;-62
2022/12/18 03:32:35;;;;;;;39.00;20.20;;;;;;;-0.99;71.65;102360.44;1704674;83;27506;-62
2022/12/18 03:35:06;;;;;;;36.77;18.40;;;;;;;-0.99;71.61;102363.95;1688448;84;25683;-62
2022/12/18 03:37:35;;;;;;;34.30;17.70;;;;;;;-1.01;71.34;102367.05;1704270;83;25677;-62
2022/12/18 03:40:05;;;;;;;38.05;19.55;;;;;;;-1.04;71.45;102359.19;1706834;84;25687;-62
2022/12/18 03:42:47;;;;;;;45.17;19.32;;;;;;;-1.04;71.34;102369.76;1707629;84;25719;-62
2022/12/18 03:45:26;;;;;;;41.60;19.42;;;;;;;-1.03;71.42;102379.40;1707399;84;27504;-61
2022/12/18 03:48:13;;;;;;;45.85;20.85;;;;;;;-1.05;71.29;102384.28;1706887;84;25798;-62
2022/12/18 03:50:57;;;;;;;37.60;18.35;;;;;;;-1.05;71.36;102393.09;1707163;84;25700;-61
2022/12/18 03:53:51;;;;;;;39.20;19.85;;;;;;;-1.03;71.47;102396.57;1707099;84;25554;-62
2022/12/18 03:56:23;;;;;;;40.43;18.50;;;;;;;-1.00;71.40;102403.61;1707197;84;25719;-61
2022/12/18 03:58:52;;;;;;;35.83;17.75;;;;;;;-1.01;71.35;102406.67;1703404;83;27621;-61
2022/12/18 04:01:26;;;;;;;32.13;17.00;;;;;;;-1.01;71.09;102417.23;1702270;84;25821;-62
2022/12/18 04:03:56;;;;;;;39.85;18.15;;;;;;;-1.06;71.07;102413.80;1702782;84;25725;-62
2022/12/18 04:06:23;;;;;;;33.35;17.12;;;;;;;-1.06;71.27;102416.87;1702891;83;26211;-62
2022/12/18 04:08:52;;;;;;;33.18;17.02;;;;;;;-1.08;71.18;102435.39;1697782;84;25853;-62
2022/12/18 04:11:23;;;;;;;37.67;19.30;;;;;;;-1.09;71.32;102435.42;1677003;84;27611;-63
2022/12/18 04:13:50;;;;;;;38.73;19.62;;;;;;;-1.08;71.48;102439.36;1702887;84;26024;-62
2022/12/18 04:16:18;;;;;;;36.23;19.12;;;;;;;-1.03;71.71;102444.12;1702134;84;25780;-62
2022/12/18 04:18:46;;;;;;;33.63;18.15;;;;;;;-0.98;71.81;102448.02;1702621;84;25767;-61
2022/12/18 04:21:14;;;;;;;39.27;20.50;;;;;;;-0.94;71.60;102453.70;1690963;84;25857;-63
2022/12/18 04:23:42;;;;;;;35.05;17.52;;;;;;;-0.97;71.35;102454.63;1702906;84;27635;-61
2022/12/18 04:26:09;;;;;;;35.85;19.07;;;;;;;-0.99;71.28;102463.02;1702093;84;25748;-62
2022/12/18 04:28:41;;;;;;;42.67;21.17;;;;;;;-0.99;71.39;102463.02;1702395;84;25844;-63
2022/12/18 04:31:09;;;;;;;39.15;20.12;;;;;;;-0.99;71.47;102466.98;1677907;84;25860;-62
2022/12/18 04:33:36;;;;;;;36.98;19.55;;;;;;;-0.98;71.37;102469.16;1689464;84;26002;-62
2022/12/18 04:36:07;;;;;;;37.63;18.52;;;;;;;-1.00;71.29;102471.83;1676248;84;28250;-60
2022/12/18 04:38:36;;;;;;;33.83;17.85;;;;;;;-0.99;71.45;102477.55;1680851;84;25495;-63
2022/12/18 04:41:07;;;;;;;32.20;17.80;;;;;;;-0.97;71.28;102472.23;1677594;84;25698;-62
2022/12/18 04:43:38;;;;;;;40.92;18.95;;;;;;;-1.00;71.27;102482.39;1702479;84;27552;-62
2022/12/18 04:46:10;;;;;;;39.40;19.27;;;;;;;-1.00;71.37;102485.03;1694839;84;25779;-62
2022/12/18 04:48:38;;;;;;;33.88;18.80;;;;;;;-1.03;71.29;102485.06;1700501;84;27343;-63
2022/12/18 04:51:06;;;;;;;34.08;18.02;;;;;;;-1.03;71.21;102486.84;1700932;84;26796;-63
2022/12/18 04:53:34;;;;;;;33.55;18.15;;;;;;;-1.04;71.42;102488.63;1694329;84;25481;-62
2022/12/18 04:56:11;;;;;;;39.30;18.17;;;;;;;-1.07;70.98;102496.58;1684297;84;25479;-62
2022/12/18 04:58:40;;;;;;;38.60;18.82;;;;;;;-1.12;71.12;102500.59;1651838;85;25763;-63
2022/12/18 05:01:09;;;;;;;39.92;19.50;;;;;;;-1.15;71.19;102516.47;1652335;86;27574;-61
2022/12/18 05:03:40;;;;;;;37.30;18.67;;;;;;;-1.20;71.11;102518.30;1652394;86;25770;-62
2022/12/18 05:06:08;;;;;;;37.35;18.87;;;;;;;-1.23;71.27;102526.70;1625321;86;25914;-62
2022/12/18 05:08:36;;;;;;;42.75;18.48;;;;;;;-1.16;71.71;102533.66;1648435;86;25807;-62
2022/12/18 05:11:08;;;;;;;41.25;18.90;;;;;;;-1.13;71.56;102537.14;1665754;84;25741;-61
2022/12/18 05:13:35;;;;;;;38.17;18.87;;;;;;;-1.14;71.24;102540.67;1663518;85;27630;-61
2022/12/18 05:16:05;;;;;;;35.58;17.80;;;;;;;-1.21;71.19;102543.41;1679280;85;25826;-61
2022/12/18 05:18:31;;;;;;;38.95;20.20;;;;;;;-1.27;71.31;102546.53;1660083;85;26525;-62
2022/12/18 05:20:59;;;;;;;38.48;19.05;;;;;;;-1.30;71.47;102552.29;1658460;85;27647;-62
2022/12/18 05:23:27;;;;;;;44.00;20.68;;;;;;;-1.35;71.58;102548.37;1639349;85;25930;-62
2022/12/18 05:26:01;;;;;;;49.00;22.00;;;;;;;-1.39;71.74;102553.70;1676381;85;28606;-62
2022/12/18 05:28:29;;;;;;;45.05;22.90;;;;;;;-1.40;71.87;102556.80;1658326;85;25792;-63
2022/12/18 05:31:00;;;;;;;54.25;23.02;;;;;;;-1.35;71.95;102569.96;1649264;85;25728;-63
2022/12/18 05:33:31;;;;;;;50.43;24.52;;;;;;;-1.33;71.89;102579.61;1660205;85;26296;-62
2022/12/18 05:36:01;;;;;;;42.67;20.95;;;;;;;-1.26;71.99;102589.22;1660306;84;26240;-60
2022/12/18 05:38:30;;;;;;;47.70;19.60;;;;;;;-1.21;71.83;102591.81;1657980;85;28497;-61
2022/12/18 05:40:57;;;;;;;45.60;21.05;;;;;;;-1.20;71.60;102601.48;1656677;85;25718;-61
2022/12/18 05:43:26;;;;;;;42.93;20.80;;;;;;;-1.15;71.69;102599.66;1656219;85;25856;-61
2022/12/18 05:45:56;;;;;;;45.03;23.57;;;;;;;-1.06;71.88;102602.67;1678364;85;25746;-62
2022/12/18 05:48:26;;;;;;;52.30;23.20;;;;;;;-0.98;71.72;102614.03;1676721;84;25897;-62
2022/12/18 05:50:53;;;;;;;45.43;21.55;;;;;;;-0.95;71.43;102602.12;1677953;85;28156;-62
2022/12/18 05:53:21;;;;;;;50.17;23.07;;;;;;;-0.92;71.20;102610.88;1661982;84;25832;-62
2022/12/18 05:55:49;;;;;;;49.18;23.55;;;;;;;-0.91;71.17;102615.27;1660522;85;25832;-62
2022/12/18 05:58:16;;;;;;;50.38;23.67;;;;;;;-0.90;71.16;102625.84;1666233;84;26176;-62
2022/12/18 06:00:45;;;;;;;46.45;22.98;;;;;;;-0.87;70.97;102628.90;1668434;85;25737;-62
2022/12/18 06:03:13;;;;;;;48.80;24.27;;;;;;;-0.83;71.09;102634.56;1678468;84;27531;-62
2022/12/18 06:05:44;;;;;;;39.45;20.32;;;;;;;-0.81;70.91;102633.64;1683854;84;25654;-62
2022/12/18 06:08:13;;;;;;;46.70;23.35;;;;;;;-0.83;70.50;102648.67;1678247;84;25844;-61
2022/12/18 06:10:42;;;;;;;51.33;24.67;;;;;;;-0.80;70.86;102655.68;1700935;84;26263;-61
2022/12/18 06:13:09;;;;;;;49.63;23.92;;;;;;;-0.79;70.80;102662.72;1702108;84;25816;-61
2022/12/18 06:15:38;;;;;;;51.55;23.10;;;;;;;-0.79;70.77;102653.02;1702203;84;27536;-61
2022/12/18 06:18:04;;;;;;;54.08;24.65;;;;;;;-0.74;70.87;102659.57;1660685;84;25833;-61
2022/12/18 06:20:31;;;;;;;47.55;24.90;;;;;;;-0.70;70.68;102669.66;1679046;84;25807;-62
2022/12/18 06:22:58;;;;;;;55.88;26.95;;;;;;;-0.75;70.62;102672.35;1702933;84;26749;-62
2022/12/18 06:25:25;;;;;;;52.90;25.60;;;;;;;-0.73;70.74;102682.47;1702240;84;25789;-62
2022/12/18 06:27:51;;;;;;;52.20;23.87;;;;;;;-0.71;70.84;102678.05;1703076;84;28146;-62
2022/12/18 06:30:18;;;;;;;49.30;24.20;;;;;;;-0.64;70.97;102681.05;1702190;84;25719;-62
2022/12/18 06:32:45;;;;;;;46.35;21.70;;;;;;;-0.60;70.82;102684.53;1699288;84;25762;-62
2022/12/18 06:35:14;;;;;;;44.53;22.10;;;;;;;-0.62;69.96;102677.05;1676806;84;25508;-61
2022/12/18 06:37:42;;;;;;;50.23;23.25;;;;;;;-0.59;70.32;102694.22;1689766;84;25894;-62
2022/12/18 06:40:11;;;;;;;51.02;24.07;;;;;;;-0.61;70.14;102692.48;1698599;83;28347;-62
2022/12/18 06:42:37;;;;;;;53.50;24.80;;;;;;;-0.59;70.20;102695.54;1702194;84;25746;-62
2022/12/18 06:45:06;;;;;;;53.02;24.25;;;;;;;-0.60;70.22;102700.85;1701964;84;25698;-62
2022/12/18 06:47:33;;;;;;;46.40;21.15;;;;;;;-0.59;70.48;102703.93;1702261;84;25764;-63
2022/12/18 06:49:59;;;;;;;47.53;21.52;;;;;;;-0.51;70.65;102712.19;1701353;84;25806;-63
2022/12/18 06:52:26;;;;;;;52.58;23.95;;;;;;;-0.42;70.63;102712.98;1701596;84;27432;-63
2022/12/18 06:54:53;;;;;;;48.80;23.15;;;;;;;-0.36;70.43;102720.41;1700939;84;25838;-62
2022/12/18 06:57:20;;;;;;;51.60;23.98;;;;;;;-0.30;70.35;102727.83;1701730;84;25763;-63
2022/12/18 06:59:47;;;;;;;47.43;21.33;;;;;;;-0.28;70.25;102730.91;1700167;82;25883;-63
2022/12/18 07:02:14;;;;;;;48.95;20.32;;;;;;;-0.25;69.98;102738.78;1702467;83;25877;-63
2022/12/18 07:04:41;;;;;;;52.17;23.95;;;;;;;-0.28;69.89;102738.84;1701878;84;27470;-62
2022/12/18 07:07:08;;;;;;;43.87;20.08;;;;;;;-0.32;69.23;102749.91;1684555;84;25478;-61
2022/12/18 07:09:35;;;;;;;46.77;21.90;;;;;;;-0.41;69.16;102753.08;1707813;82;25687;-62
2022/12/18 07:12:02;;;;;;;49.98;22.98;;;;;;;-0.46;69.38;102754.45;1708035;82;25706;-61
2022/12/18 07:14:29;;;;;;;44.15;21.00;;;;;;;-0.50;69.04;102760.68;1707807;84;25467;-62
2022/12/18 07:16:56;;;;;;;51.13;22.00;;;;;;;-0.54;69.05;102754.52;1707868;84;27871;-61
2022/12/18 07:19:23;;;;;;;48.33;23.27;;;;;;;-0.57;69.23;102754.56;1704590;83;25770;-61
2022/12/18 07:21:51;;;;;;;48.55;22.90;;;;;;;-0.51;69.55;102749.67;1673734;84;25785;-61
2022/12/18 07:24:18;;;;;;;51.58;22.50;;;;;;;-0.48;69.33;102773.41;1678051;84;26305;-62
2022/12/18 07:26:48;;;;;;;55.40;24.32;;;;;;;-0.49;69.10;102769.91;1673834;85;25807;-62
2022/12/18 07:29:15;;;;;;;48.60;21.95;;;;;;;-0.51;69.14;102773.00;1673305;85;27494;-61
2022/12/18 07:31:43;;;;;;;51.45;23.45;;;;;;;-0.49;69.12;102783.55;1693797;84;25814;-62
2022/12/18 07:34:14;;;;;;;50.55;24.00;;;;;;;-0.50;69.30;102773.90;1702170;84;25810;-63
2022/12/18 07:36:42;;;;;;;60.78;26.87;;;;;;;-0.42;69.29;102783.95;1686237;84;26115;-61
2022/12/18 07:39:11;;;;;;;54.90;24.77;;;;;;;-0.42;68.85;102782.63;1674914;84;25850;-61
2022/12/18 07:41:42;;;;;;;49.25;22.80;;;;;;;-0.43;69.01;102780.88;1707200;84;27484;-62
2022/12/18 07:44:10;;;;;;;62.30;24.05;;;;;;;-0.43;68.95;102787.91;1706821;84;25802;-62
2022/12/18 07:46:38;;;;;;;51.40;24.47;;;;;;;-0.42;69.00;102781.73;1701604;84;25700;-63
2022/12/18 07:49:05;;;;;;;61.80;26.02;;;;;;;-0.43;69.14;102784.84;1702907;84;25868;-63
2022/12/18 07:51:31;;;;;;;55.52;24.77;;;;;;;-0.44;68.99;102795.41;1708102;84;25715;-61
2022/12/18 07:53:58;;;;;;;47.08;22.75;;;;;;;-0.40;69.32;102794.50;1702996;84;28247;-62
2022/12/18 07:56:25;;;;;;;51.75;23.95;;;;;;;-0.30;69.35;102794.84;1705078;84;26016;-62
2022/12/18 07:58:52;;;;;;;52.40;22.77;;;;;;;-0.16;69.45;102797.34;1704496;84;25806;-62
2022/12/18 08:01:19;;;;;;;50.85;23.47;;;;;;;0.02;69.21;102802.86;1689392;84;25851;-62
2022/12/18 08:03:46;;;;;;;52.08;23.10;;;;;;;0.07;68.82;102814.72;1686918;84;25796;-62
2022/12/18 08:06:13;;;;;;;47.43;22.50;;;;;;;0.20;68.70;102816.77;1695193;84;27478;-62
2022/12/18 08:08:41;;;;;;;44.67;21.85;;;;;;;0.15;67.90;102824.33;1695176;84;25782;-62
2022/12/18 08:11:08;;;;;;;55.67;24.72;;;;;;;0.23;67.65;102828.65;1700000;84;25467;-62
2022/12/18 08:13:35;;;;;;;55.43;23.22;;;;;;;0.24;67.67;102829.08;1700463;84;25514;-62
2022/12/18 08:16:06;;;;;;;51.18;23.77;;;;;;;0.26;67.95;102832.59;1700771;84;25844;-62
2022/12/18 08:18:35;;;;;;;45.20;22.13;;;;;;;0.29;68.01;102829.89;1702024;84;28167;-62
2022/12/18 08:21:10;;;;;;;48.13;23.45;;;;;;;0.38;68.21;102834.21;1673522;85;25776;-62
2022/12/18 08:23:37;;;;;;;52.17;23.00;;;;;;;0.42;67.60;102833.26;1698483;84;25738;-62
2022/12/18 08:26:04;;;;;;;46.68;22.67;;;;;;;0.41;67.87;102838.12;1686483;84;25750;-62
2022/12/18 08:28:31;;;;;;;48.08;23.05;;;;;;;0.39;67.63;102836.83;1673736;84;25832;-62
2022/12/18 08:30:58;;;;;;;44.65;20.88;;;;;;;0.28;67.21;102851.96;1702194;84;28335;-62
2022/12/18 08:33:26;;;;;;;46.77;23.35;;;;;;;0.21;66.96;102846.31;1687613;84;25828;-62
2022/12/18 08:35:53;;;;;;;65.22;21.73;;;;;;;0.11;67.02;102847.74;1700948;84;25771;-62
2022/12/18 08:38:20;;;;;;;45.83;21.65;;;;;;;0.17;67.60;102846.80;1690032;84;25790;-61
2022/12/18 08:40:47;;;;;;;43.28;21.80;;;;;;;0.23;67.29;102846.72;1685614;84;25749;-61
2022/12/18 08:45:59;;;;;;;38.53;19.12;;;;;;;0.30;67.18;102859.02;1678591;85;25888;-62
2022/12/18 08:48:25;;;;;;;45.75;21.95;;;;;;;0.19;66.73;102851.64;1678964;85;26298;-61
2022/12/18 08:51:00;;;;;;;48.55;18.87;;;;;;;0.17;67.10;102853.42;1678716;85;25856;-62
2022/12/18 08:53:27;;;;;;;46.77;20.43;;;;;;;0.23;67.23;102850.69;1654234;85;26086;-61
2022/12/18 08:55:56;;;;;;;43.60;19.57;;;;;;;0.22;67.01;102854.69;1689960;84;27251;-62
2022/12/18 08:58:23;;;;;;;38.50;17.67;;;;;;;0.10;66.76;102857.90;1673324;85;25745;-62
2022/12/18 09:00:50;;;;;;;44.90;18.80;;;;;;;0.07;67.04;102855.73;1673246;84;25829;-62
2022/12/18 09:03:19;;;;;;;40.55;17.92;;;;;;;0.08;67.19;102864.11;1644715;87;25877;-62
2022/12/18 09:05:47;;;;;;;44.85;18.67;;;;;;;0.17;67.58;102867.98;1699668;84;25823;-62
2022/12/18 09:08:14;;;;;;;41.20;20.02;;;;;;;0.23;67.29;102870.55;1689731;84;27508;-62
2022/12/18 09:10:46;;;;;;;35.60;17.27;;;;;;;0.28;67.47;102864.77;1693317;84;25855;-62
2022/12/18 09:13:15;;;;;;;35.65;18.45;;;;;;;0.35;67.16;102869.98;1674610;84;25727;-62
2022/12/18 09:15:46;;;;;;;39.42;18.45;;;;;;;0.39;67.01;102869.06;1691326;83;25818;-62
2022/12/18 09:18:15;;;;;;;45.17;19.48;;;;;;;0.36;66.52;102868.62;1682520;84;25821;-62
2022/12/18 09:20:42;;;;;;;42.90;18.45;;;;;;;0.31;66.65;102866.50;1681778;84;27386;-62
2022/12/18 09:23:10;;;;;;;37.48;18.42;;;;;;;0.29;66.44;102870.50;1702293;83;25891;-62
2022/12/18 09:25:38;;;;;;;38.48;18.20;;;;;;;0.25;66.64;102885.11;1704919;84;25829;-62
2022/12/18 09:28:15;;;;;;;44.30;18.95;;;;;;;0.26;66.56;102890.38;1689155;84;25863;-62
2022/12/18 09:30:45;;;;;;;44.03;19.10;;;;;;;0.27;66.40;102883.33;1707903;84;25760;-62
2022/12/18 09:33:12;;;;;;;41.95;18.27;;;;;;;0.28;66.45;102881.98;1703993;84;27464;-62
2022/12/18 09:35:41;;;;;;;46.85;21.60;;;;;;;0.27;66.43;102886.84;1688450;83;25985;-62
2022/12/18 09:38:12;;;;;;;45.38;20.02;;;;;;;0.28;66.36;102876.68;1686972;82;25753;-63
2022/12/18 09:40:54;;;;;;;44.90;19.12;;;;;;;0.28;66.61;102876.68;1704179;84;25782;-63
2022/12/18 09:43:26;;;;;;;46.53;22.02;;;;;;;0.25;66.01;102891.27;1678750;84;25851;-62
2022/12/18 09:46:06;;;;;;;43.40;20.88;;;;;;;0.16;66.25;102891.37;1676627;84;28164;-62
2022/12/18 09:48:43;;;;;;;54.18;23.40;;;;;;;0.16;66.42;102896.66;1673682;84;25956;-62
2022/12/18 09:51:18;;;;;;;54.65;23.05;;;;;;;0.19;66.74;102903.26;1694565;84;26480;-62
2022/12/18 09:53:52;;;;;;;48.78;20.27;;;;;;;0.14;66.62;102907.28;1673934;84;25804;-62
2022/12/18 09:56:24;;;;;;;51.10;22.32;;;;;;;0.08;66.36;102909.09;1673505;84;25781;-62
2022/12/18 09:59:01;;;;;;;43.40;19.98;;;;;;;0.11;66.69;102915.23;1644738;85;28247;-62
2022/12/18 10:01:30;;;;;;;47.78;18.82;;;;;;;0.16;66.86;102919.16;1672934;85;25806;-62
2022/12/18 10:03:57;;;;;;;49.05;21.50;;;;;;;0.25;66.24;102918.20;1678382;84;25769;-62
2022/12/18 10:06:41;;;;;;;48.73;21.27;;;;;;;0.24;66.21;102917.77;1644632;86;25796;-62
2022/12/18 10:09:23;;;;;;;;;;;;;;;0.24;66.14;102923.92;1675587;85;25795;-62
2022/12/18 10:12:30;;;;;;;47.08;19.37;;;;;;;0.22;66.36;102924.41;1673087;84;27472;-62
2022/12/18 10:15:14;;;;;;;49.05;19.95;;;;;;;0.24;66.49;102932.33;1658607;85;25957;-62
2022/12/18 10:18:07;;;;;;;55.25;23.07;;;;;;;0.28;66.44;102949.92;1688903;84;25771;-62
2022/12/18 10:20:42;;;;;;;51.42;21.80;;;;;;;0.25;66.56;102952.62;1693368;84;26160;-62
2022/12/18 10:23:35;;;;;;;45.48;21.50;;;;;;;0.28;66.64;102953.46;1701214;84;25783;-62
2022/12/18 10:26:10;;;;;;;47.73;21.70;;;;;;;0.34;66.51;102950.30;1701207;84;27475;-61
2022/12/18 10:28:40;;;;;;;50.75;19.77;;;;;;;0.34;66.23;102963.11;1701749;84;25780;-62
2022/12/18 10:31:16;;;;;;;45.90;20.88;;;;;;;0.35;66.51;102965.30;1700981;82;25789;-61
2022/12/18 10:33:44;;;;;;;46.60;20.40;;;;;;;0.40;66.18;102966.15;1690623;84;25483;-62
2022/12/18 10:36:11;;;;;;;52.05;19.52;;;;;;;0.40;66.30;102974.95;1701871;84;25502;-62
2022/12/18 10:38:40;;;;;;;48.50;23.60;;;;;;;0.39;66.25;102972.34;1700113;84;28303;-63
2022/12/18 10:41:23;;;;;;;46.65;22.22;;;;;;;0.37;66.08;102974.11;1643611;85;25928;-62
2022/12/18 10:44:10;;;;;;;47.55;18.20;;;;;;;0.28;65.46;102984.33;1686169;84;25786;-62
2022/12/18 10:46:37;;;;;;;48.68;17.30;;;;;;;0.29;64.66;102976.83;1694122;84;25782;-62
2022/12/18 10:49:04;;;;;;;42.60;16.00;;;;;;;0.26;65.02;102974.23;1701147;84;25787;-62
2022/12/18 10:51:35;;;;;;;33.75;17.05;;;;;;;0.22;64.24;102985.30;1701879;84;27520;-62
2022/12/18 10:54:15;;;;;;;36.70;15.55;;;;;;;0.14;63.89;102977.42;1701514;84;25907;-63
2022/12/18 10:56:43;;;;;;;30.32;14.07;;;;;;;0.13;63.83;102995.97;1694763;84;25779;-62
2022/12/18 10:59:14;;;;;;;38.23;17.42;;;;;;;0.07;64.37;102985.41;1673877;85;25826;-62
2022/12/18 11:01:54;;;;;;;31.23;13.85;;;;;;;0.06;64.00;102985.87;1676069;84;25813;-62
2022/12/18 11:04:29;;;;;;;32.63;13.28;;;;;;;0.08;63.78;102993.79;1680687;84;28524;-63
2022/12/18 11:07:07;;;;;;;34.75;15.78;;;;;;;0.11;63.72;102993.77;1673384;85;25861;-62
2022/12/18 11:09:37;;;;;;;37.58;15.00;;;;;;;0.09;64.23;103004.35;1686386;84;25822;-63
2022/12/18 11:12:20;;;;;;;31.73;14.28;;;;;;;0.06;63.90;103008.38;1688193;84;25938;-63
2022/12/18 11:14:54;;;;;;;25.45;13.25;;;;;;;0.10;64.16;103009.22;1684327;84;26527;-62
2022/12/18 11:17:34;;;;;;;26.87;11.95;;;;;;;0.14;63.66;103013.58;1673444;84;27483;-63
2022/12/18 11:20:06;;;;;;;22.10;10.63;;;;;;;0.17;63.50;103005.63;1678266;85;25498;-63
2022/12/18 11:22:38;;;;;;;27.25;12.93;;;;;;;0.10;61.79;102999.95;1680235;84;25742;-63
2022/12/18 11:25:16;;;;;;;24.27;11.20;;;;;;;0.05;62.20;103013.23;1681838;84;25858;-63
2022/12/18 11:27:54;;;;;;;25.85;12.53;;;;;;;0.07;62.54;103012.78;1679134;84;25778;-62
2022/12/18 11:30:36;;;;;;;26.68;13.62;;;;;;;0.07;62.48;103012.78;1678438;85;28318;-63
2022/12/18 11:33:21;;;;;;;26.23;12.07;;;;;;;0.06;62.30;103021.61;1683666;84;26163;-63
2022/12/18 11:35:56;;;;;;;26.12;11.00;;;;;;;-0.02;62.70;103024.30;1674677;84;26317;-63
2022/12/18 11:38:27;;;;;;;29.02;12.23;;;;;;;-0.04;62.70;103019.46;1679717;84;25809;-62
2022/12/18 11:41:11;;;;;;;30.82;13.13;;;;;;;-0.04;62.96;103018.59;1678478;84;25793;-63
2022/12/18 11:43:46;;;;;;;33.08;14.83;;;;;;;0.01;62.88;103019.42;1676640;84;27494;-63